createdAt,value
2022-12-26T00:01:07.470Z,84.60
2022-12-26T00:03:34.619Z,84.60
2022-12-26T00:06:04.462Z,84.60
2022-12-26T00:08:32.477Z,84.60
2022-12-26T00:10:59.505Z,84.60
2022-12-26T00:13:38.542Z,84.60
2022-12-26T00:16:13.615Z,84.60
2022-12-26T00:18:40.888Z,84.50
2022-12-26T00:21:10.517Z,84.60
2022-12-26T00:23:40.853Z,84.40
2022-12-26T00:26:11.002Z,84.20
2022-12-26T00:28:38.984Z,84.10
2022-12-26T00:31:17.791Z,84.00
2022-12-26T00:33:47.486Z,83.90
2022-12-26T00:36:19.241Z,83.90
2022-12-26T00:38:46.781Z,83.70
2022-12-26T00:41:17.126Z,83.50
2022-12-26T00:43:44.122Z,83.50
2022-12-26T00:46:11.535Z,83.60
2022-12-26T00:48:42.612Z,83.60
2022-12-26T00:51:12.839Z,83.70
2022-12-26T00:53:39.828Z,83.60
2022-12-26T00:56:08.026Z,83.70
2022-12-26T00:58:37.065Z,83.70
2022-12-26T01:01:23.200Z,83.50
2022-12-26T01:03:50.660Z,83.40
2022-12-26T01:06:17.680Z,83.30
2022-12-26T01:08:44.804Z,83.40
2022-12-26T01:11:23.529Z,83.60
2022-12-26T01:13:50.320Z,83.50
2022-12-26T01:16:19.544Z,83.50
2022-12-26T01:18:47.059Z,83.20
2022-12-26T01:21:16.006Z,83.30
2022-12-26T01:23:45.280Z,83.10
2022-12-26T01:26:18.264Z,83.40
2022-12-26T01:28:51.413Z,83.50
2022-12-26T01:31:19.030Z,83.70
2022-12-26T01:33:46.400Z,83.50
2022-12-26T01:36:13.791Z,83.60
2022-12-26T01:38:40.548Z,83.20
2022-12-26T01:41:20.607Z,83.40
2022-12-26T01:44:01.398Z,83.50
2022-12-26T01:46:37.590Z,83.20
2022-12-26T01:49:21.638Z,83.20
2022-12-26T01:51:57.107Z,83.20
2022-12-26T01:54:37.655Z,83.10
2022-12-26T01:57:23.114Z,83.10
2022-12-26T01:59:52.145Z,83.20
2022-12-26T02:02:21.266Z,83.10
2022-12-26T02:05:12.008Z,83.00
2022-12-26T02:07:42.665Z,82.60
2022-12-26T02:10:14.792Z,82.40
2022-12-26T02:12:44.312Z,82.60
2022-12-26T02:15:14.033Z,82.50
2022-12-26T02:17:41.861Z,82.00
2022-12-26T02:20:10.182Z,81.80
2022-12-26T02:22:37.000Z,81.70
2022-12-26T02:25:28.195Z,81.30
2022-12-26T02:28:17.021Z,80.90
2022-12-26T02:31:11.938Z,80.50
2022-12-26T02:33:40.752Z,80.50
2022-12-26T02:36:21.446Z,80.00
2022-12-26T02:39:45.107Z,80.00
2022-12-26T02:42:06.054Z,80.00
2022-12-26T02:45:10.281Z,80.00
2022-12-26T02:47:57.014Z,80.00
2022-12-26T02:51:06.064Z,80.00
2022-12-26T02:54:02.137Z,79.80
2022-12-26T02:57:03.041Z,79.80
2022-12-26T03:00:17.419Z,80.30
2022-12-26T03:03:14.880Z,80.50
2022-12-26T03:06:28.966Z,80.80
2022-12-26T03:09:21.760Z,80.80
2022-12-26T03:12:18.507Z,80.50
2022-12-26T03:14:52.280Z,80.40
2022-12-26T03:17:38.520Z,80.50
2022-12-26T03:20:08.630Z,80.70
2022-12-26T03:22:58.999Z,80.60
2022-12-26T03:26:07.036Z,80.80
2022-12-26T03:28:34.376Z,80.70
2022-12-26T03:31:05.574Z,80.60
2022-12-26T03:34:02.417Z,80.80
2022-12-26T03:36:56.472Z,81.00
2022-12-26T03:40:29.192Z,81.10
2022-12-26T03:43:23.633Z,81.20
2022-12-26T03:46:32.844Z,81.40
2022-12-26T03:49:46.986Z,81.50
2022-12-26T03:53:02.029Z,81.70
2022-12-26T03:56:00.474Z,81.40
2022-12-26T03:59:16.809Z,81.80
2022-12-26T04:02:05.130Z,82.30
2022-12-26T04:04:58.378Z,82.60
2022-12-26T04:07:56.002Z,82.80
2022-12-26T04:10:56.330Z,84.40
2022-12-26T04:14:13.096Z,85.10
2022-12-26T04:17:10.855Z,85.40
2022-12-26T04:20:04.500Z,85.70
2022-12-26T04:22:57.319Z,85.90
2022-12-26T04:25:50.251Z,85.90
2022-12-26T04:28:38.739Z,85.90
2022-12-26T04:31:52.024Z,86.00
2022-12-26T04:34:51.864Z,86.30
2022-12-26T04:37:43.554Z,86.70
2022-12-26T04:40:35.434Z,87.30
2022-12-26T04:43:48.181Z,87.10
2022-12-26T04:46:09.641Z,87.70
2022-12-26T04:49:04.364Z,88.00
2022-12-26T04:51:33.977Z,88.40
2022-12-26T04:54:03.964Z,88.80
2022-12-26T04:56:32.317Z,88.80
2022-12-26T04:59:00.123Z,88.80
2022-12-26T05:01:45.775Z,89.00
2022-12-26T05:04:36.879Z,88.60
2022-12-26T05:07:25.195Z,88.60
2022-12-26T05:09:53.884Z,88.70
2022-12-26T05:12:22.959Z,88.40
2022-12-26T05:14:49.895Z,88.00
2022-12-26T05:17:36.708Z,87.60
2022-12-26T05:20:25.000Z,87.50
2022-12-26T05:23:12.017Z,87.10
2022-12-26T05:26:02.931Z,86.60
2022-12-26T05:28:42.191Z,86.50
2022-12-26T05:31:11.562Z,86.60
2022-12-26T05:33:57.353Z,86.30
2022-12-26T05:36:29.010Z,86.10
2022-12-26T05:38:56.195Z,86.00
2022-12-26T05:41:25.186Z,86.20
2022-12-26T05:43:52.022Z,86.10
2022-12-26T05:46:19.248Z,86.00
2022-12-26T05:48:47.459Z,85.80
2022-12-26T05:51:14.504Z,85.70
2022-12-26T05:53:43.866Z,85.50
2022-12-26T05:56:13.342Z,84.40
2022-12-26T05:58:40.868Z,84.00
2022-12-26T06:01:19.098Z,83.40
2022-12-26T06:03:50.823Z,83.20
2022-12-26T06:06:20.947Z,82.80
2022-12-26T06:08:49.273Z,82.30
2022-12-26T06:11:16.837Z,81.90
2022-12-26T06:13:44.440Z,81.70
2022-12-26T06:16:14.664Z,81.70
2022-12-26T06:18:44.800Z,81.60
2022-12-26T06:21:17.743Z,81.30
2022-12-26T06:23:44.720Z,81.20
2022-12-26T06:26:13.093Z,81.40
2022-12-26T06:28:41.903Z,81.50
2022-12-26T06:31:21.651Z,81.50
2022-12-26T06:33:56.505Z,81.40
2022-12-26T06:36:25.378Z,81.20
2022-12-26T06:38:52.985Z,81.10
2022-12-26T06:41:29.616Z,81.10
2022-12-26T06:43:58.634Z,81.10
2022-12-26T06:46:25.820Z,80.90
2022-12-26T06:48:55.741Z,80.90
2022-12-26T06:51:25.038Z,80.90
2022-12-26T06:53:56.307Z,80.80
2022-12-26T06:56:28.262Z,81.20
2022-12-26T06:59:02.535Z,81.30
2022-12-26T07:01:32.468Z,81.60
2022-12-26T07:04:00.130Z,81.90
2022-12-26T07:06:29.375Z,82.10
2022-12-26T07:09:05.517Z,82.10
2022-12-26T07:11:35.084Z,82.30
2022-12-26T07:14:02.522Z,82.50
2022-12-26T07:16:29.359Z,83.00
2022-12-26T07:18:57.977Z,83.50
2022-12-26T07:21:26.085Z,84.40
2022-12-26T07:23:55.000Z,85.30
2022-12-26T07:26:23.008Z,85.80
2022-12-26T07:28:53.884Z,86.80
2022-12-26T07:31:20.922Z,87.60
2022-12-26T07:33:55.626Z,87.70
2022-12-26T07:36:24.972Z,88.00
2022-12-26T07:38:54.440Z,89.60
2022-12-26T07:41:42.138Z,89.60
2022-12-26T07:44:14.573Z,89.50
2022-12-26T07:46:41.346Z,89.40
2022-12-26T07:49:12.572Z,89.40
2022-12-26T07:51:39.460Z,89.50
2022-12-26T07:54:11.138Z,89.60
2022-12-26T07:56:39.688Z,89.70
2022-12-26T07:59:06.407Z,89.90
2022-12-26T08:01:33.389Z,90.00
2022-12-26T08:04:01.103Z,90.20
2022-12-26T08:06:28.286Z,90.20
2022-12-26T08:08:55.595Z,90.20
2022-12-26T08:11:24.568Z,90.40
2022-12-26T08:13:52.347Z,90.70
2022-12-26T08:16:20.785Z,90.90
2022-12-26T08:18:48.556Z,91.20
2022-12-26T08:21:15.870Z,91.20
2022-12-26T08:23:46.356Z,91.60
2022-12-26T08:26:20.744Z,91.90
2022-12-26T08:28:48.253Z,92.00
2022-12-26T08:31:15.212Z,92.10
2022-12-26T08:33:45.063Z,92.20
2022-12-26T08:36:20.103Z,92.00
2022-12-26T08:38:50.463Z,91.90
2022-12-26T08:41:17.683Z,91.80
2022-12-26T08:46:34.709Z,92.10
2022-12-26T08:49:02.313Z,92.30
2022-12-26T08:51:35.150Z,92.50
2022-12-26T08:54:02.989Z,92.50
2022-12-26T08:56:29.987Z,92.60
2022-12-26T08:58:57.193Z,92.60
2022-12-26T09:01:27.047Z,92.60
2022-12-26T09:03:55.829Z,92.70
2022-12-26T09:06:26.344Z,92.70
2022-12-26T09:08:53.806Z,92.70
2022-12-26T09:11:28.651Z,92.70
2022-12-26T09:13:58.695Z,92.60
2022-12-26T09:16:37.469Z,92.50
2022-12-26T09:19:06.083Z,92.50
2022-12-26T09:21:33.093Z,92.50
2022-12-26T09:24:06.885Z,92.40
2022-12-26T09:26:36.452Z,92.30
2022-12-26T09:29:06.135Z,92.50
2022-12-26T09:31:36.200Z,92.70
2022-12-26T09:34:07.160Z,92.70
2022-12-26T09:36:38.223Z,92.80
2022-12-26T09:39:05.779Z,92.90
2022-12-26T09:42:02.608Z,92.80
2022-12-26T09:44:43.702Z,92.60
2022-12-26T09:47:32.659Z,92.60
2022-12-26T09:50:27.190Z,92.60
2022-12-26T09:52:57.982Z,92.60
2022-12-26T09:55:43.779Z,92.60
2022-12-26T09:58:35.344Z,92.50
2022-12-26T10:01:05.643Z,92.40
2022-12-26T10:03:39.588Z,92.00
2022-12-26T10:06:22.868Z,92.00
2022-12-26T10:09:16.961Z,92.00
2022-12-26T10:11:54.849Z,92.10
2022-12-26T10:14:46.875Z,92.20
2022-12-26T10:17:22.917Z,92.10
2022-12-26T10:20:20.198Z,92.00
2022-12-26T10:23:09.177Z,92.00
2022-12-26T10:25:44.917Z,92.00
2022-12-26T10:28:46.041Z,91.40
2022-12-26T10:31:29.038Z,91.10
2022-12-26T10:34:05.168Z,90.80
2022-12-26T10:36:49.372Z,90.20
2022-12-26T10:39:43.205Z,90.10
2022-12-26T10:42:34.318Z,89.80
2022-12-26T10:45:05.741Z,89.60
2022-12-26T10:47:41.939Z,89.30
2022-12-26T10:50:23.836Z,89.20
2022-12-26T10:52:57.452Z,88.60
2022-12-26T10:55:34.474Z,88.30
2022-12-26T10:58:23.210Z,88.30
2022-12-26T11:00:50.163Z,88.00
2022-12-26T11:03:23.639Z,88.00
2022-12-26T11:06:07.372Z,87.70
2022-12-26T11:09:02.177Z,87.50
2022-12-26T11:11:47.985Z,88.00
2022-12-26T11:14:34.115Z,87.20
2022-12-26T11:17:13.398Z,86.80
2022-12-26T11:19:44.789Z,86.50
2022-12-26T11:22:22.536Z,86.40
2022-12-26T11:25:08.290Z,86.40
2022-12-26T11:27:39.908Z,86.10
2022-12-26T11:30:15.139Z,85.90
2022-12-26T11:32:44.339Z,85.70
2022-12-26T11:35:23.708Z,85.60
2022-12-26T11:37:57.217Z,85.50
2022-12-26T11:40:33.337Z,85.30
2022-12-26T11:43:02.840Z,85.20
2022-12-26T11:45:37.053Z,84.80
2022-12-26T11:48:18.377Z,84.90
2022-12-26T11:50:46.559Z,84.70
2022-12-26T11:53:21.048Z,84.60
2022-12-26T11:56:00.288Z,84.60
2022-12-26T11:58:31.576Z,84.10
2022-12-26T12:00:59.198Z,83.90
2022-12-26T12:03:46.881Z,84.20
2022-12-26T12:06:37.287Z,83.60
2022-12-26T12:09:40.473Z,83.30
2022-12-26T12:12:20.481Z,83.50
2022-12-26T12:15:21.668Z,83.70
2022-12-26T12:18:05.547Z,83.30
2022-12-26T12:20:51.614Z,83.00
2022-12-26T12:23:36.765Z,82.40
2022-12-26T12:26:07.117Z,82.50
2022-12-26T12:28:33.900Z,82.20
2022-12-26T12:31:29.791Z,81.90
2022-12-26T12:34:16.388Z,82.00
2022-12-26T12:37:02.595Z,82.70
2022-12-26T12:39:47.375Z,82.70
2022-12-26T12:42:48.966Z,82.20
2022-12-26T12:46:03.644Z,82.40
2022-12-26T12:48:48.144Z,81.50
2022-12-26T12:51:37.515Z,81.40
2022-12-26T12:54:56.056Z,81.90
2022-12-26T12:57:48.728Z,84.50
2022-12-26T13:00:21.904Z,84.60
2022-12-26T13:02:58.928Z,86.20
2022-12-26T13:05:36.399Z,86.20
2022-12-26T13:08:27.935Z,87.20
2022-12-26T13:11:19.133Z,87.40
2022-12-26T13:14:01.528Z,87.30
2022-12-26T13:16:43.352Z,87.30
2022-12-26T13:19:25.380Z,88.80
2022-12-26T13:21:57.554Z,89.50
2022-12-26T13:24:35.869Z,89.40
2022-12-26T13:27:24.874Z,90.20
2022-12-26T13:29:55.035Z,90.40
2022-12-26T13:32:28.516Z,90.70
2022-12-26T13:34:58.623Z,90.80
2022-12-26T13:37:39.915Z,90.90
2022-12-26T13:40:13.038Z,91.40
2022-12-26T13:43:05.015Z,91.00
2022-12-26T13:45:37.685Z,91.00
2022-12-26T13:48:17.376Z,91.20
2022-12-26T13:51:00.137Z,91.40
2022-12-26T13:53:35.478Z,91.50
2022-12-26T13:56:10.753Z,91.50
2022-12-26T13:59:03.369Z,91.60
2022-12-26T14:01:55.609Z,91.70
2022-12-26T14:04:36.386Z,90.90
2022-12-26T14:07:20.993Z,90.70
2022-12-26T14:10:09.560Z,90.50
2022-12-26T14:13:05.439Z,90.20
2022-12-26T14:15:58.885Z,90.00
2022-12-26T14:18:34.875Z,89.50
2022-12-26T14:21:11.011Z,90.00
2022-12-26T14:23:46.286Z,88.20
2022-12-26T14:26:28.364Z,88.50
2022-12-26T14:29:06.531Z,86.90
2022-12-26T14:31:44.674Z,88.20
2022-12-26T14:34:36.489Z,85.60
2022-12-26T14:37:22.648Z,85.50
2022-12-26T14:40:26.387Z,83.50
2022-12-26T14:43:36.386Z,83.30
2022-12-26T14:46:11.243Z,82.70
2022-12-26T14:48:40.739Z,82.50
2022-12-26T14:51:19.764Z,81.90
2022-12-26T14:54:16.836Z,81.70
2022-12-26T14:56:44.498Z,81.10
2022-12-26T14:59:26.964Z,81.30
2022-12-26T15:02:03.688Z,81.40
2022-12-26T15:04:43.617Z,81.30
2022-12-26T15:08:40.365Z,81.50
2022-12-26T15:11:30.862Z,81.90
2022-12-26T15:14:33.369Z,81.30
2022-12-26T15:17:21.670Z,81.60
2022-12-26T15:20:10.111Z,81.60
2022-12-26T15:22:59.535Z,81.90
2022-12-26T15:25:47.480Z,82.40
2022-12-26T15:28:41.789Z,82.90
2022-12-26T15:31:45.978Z,82.60
2022-12-26T15:34:37.293Z,82.70
2022-12-26T15:37:43.112Z,82.30
2022-12-26T15:40:40.762Z,81.70
2022-12-26T15:43:45.270Z,81.90
2022-12-26T15:46:26.784Z,81.80
2022-12-26T15:49:18.860Z,82.10
2022-12-26T15:52:24.463Z,81.80
2022-12-26T15:55:06.225Z,82.50
2022-12-26T15:57:50.136Z,82.30
2022-12-26T16:00:31.306Z,82.40
2022-12-26T16:03:01.152Z,82.60
2022-12-26T16:06:06.000Z,83.00
2022-12-26T16:08:54.492Z,83.20
2022-12-26T16:11:25.733Z,83.60
2022-12-26T16:13:55.842Z,84.00
2022-12-26T16:16:37.792Z,83.80
2022-12-26T16:19:27.907Z,83.80
2022-12-26T16:22:21.243Z,84.40
2022-12-26T16:24:51.638Z,84.10
2022-12-26T16:27:24.729Z,84.20
2022-12-26T16:29:59.435Z,84.40
2022-12-26T16:32:35.972Z,84.70
2022-12-26T16:35:05.110Z,84.60
2022-12-26T16:37:32.896Z,84.60
2022-12-26T16:40:23.596Z,85.10
2022-12-26T16:43:18.628Z,84.00
2022-12-26T16:45:49.463Z,84.80
2022-12-26T16:48:19.347Z,82.90
2022-12-26T16:50:55.799Z,82.30
2022-12-26T16:53:36.058Z,85.90
2022-12-26T16:56:32.833Z,87.70
2022-12-26T16:59:04.663Z,89.20
2022-12-26T17:01:34.943Z,90.30
2022-12-26T17:04:17.426Z,90.70
2022-12-26T17:06:51.740Z,91.10
2022-12-26T17:09:20.615Z,91.40
2022-12-26T17:11:54.611Z,91.50
2022-12-26T17:14:28.343Z,91.60
2022-12-26T17:16:59.037Z,91.70
2022-12-26T17:19:32.608Z,91.90
2022-12-26T17:22:11.754Z,91.90
2022-12-26T17:24:41.889Z,92.00
2022-12-26T17:27:17.675Z,92.10
2022-12-26T17:29:49.599Z,92.20
2022-12-26T17:32:36.690Z,92.30
2022-12-26T17:35:14.414Z,92.40
2022-12-26T17:37:41.928Z,92.50
2022-12-26T17:40:19.079Z,92.50
2022-12-26T17:43:20.133Z,92.50
2022-12-26T17:45:48.898Z,92.50
2022-12-26T17:48:18.034Z,92.60
2022-12-26T17:50:48.201Z,92.60
2022-12-26T17:53:33.679Z,92.60
2022-12-26T17:56:07.121Z,92.60
2022-12-26T17:58:34.912Z,92.70
2022-12-26T18:01:02.298Z,92.60
2022-12-26T18:03:29.194Z,92.60
2022-12-26T18:05:58.740Z,92.60
2022-12-26T18:08:37.352Z,92.60
2022-12-26T18:11:07.352Z,92.60
2022-12-26T18:13:34.621Z,92.70
2022-12-26T18:16:02.501Z,92.80
2022-12-26T18:18:40.174Z,92.80
2022-12-26T18:21:11.564Z,92.80
2022-12-26T18:23:38.794Z,92.80
2022-12-26T18:26:20.486Z,92.90
2022-12-26T18:28:49.989Z,92.90
2022-12-26T18:31:19.564Z,92.90
2022-12-26T18:33:46.525Z,92.90
2022-12-26T18:36:15.769Z,92.80
2022-12-26T18:38:42.853Z,92.80
2022-12-26T18:41:16.047Z,92.80
2022-12-26T18:43:42.847Z,92.80
2022-12-26T18:46:22.928Z,92.80
2022-12-26T18:48:51.017Z,92.80
2022-12-26T18:51:21.737Z,92.80
2022-12-26T18:53:50.960Z,92.80
2022-12-26T18:56:19.942Z,92.80
2022-12-26T18:58:52.397Z,92.80
2022-12-26T19:01:24.814Z,92.80
2022-12-26T19:03:53.726Z,92.80
2022-12-26T19:06:26.134Z,92.80
2022-12-26T19:08:53.119Z,92.70
2022-12-26T19:11:20.680Z,92.60
2022-12-26T19:13:48.395Z,92.50
2022-12-26T19:16:15.908Z,92.40
2022-12-26T19:18:44.353Z,92.10
2022-12-26T19:21:15.628Z,91.80
2022-12-26T19:23:45.495Z,90.80
2022-12-26T19:26:14.951Z,90.20
2022-12-26T19:28:43.172Z,90.00
2022-12-26T19:31:12.943Z,88.50
2022-12-26T19:33:42.236Z,88.00
2022-12-26T19:36:10.195Z,87.60
2022-12-26T19:38:37.720Z,88.10
2022-12-26T19:41:12.729Z,88.50
2022-12-26T19:43:42.887Z,88.70
2022-12-26T19:46:15.519Z,89.10
2022-12-26T19:48:42.488Z,88.70
2022-12-26T19:51:12.217Z,89.20
2022-12-26T19:53:40.202Z,89.40
2022-12-26T19:56:15.314Z,89.20
2022-12-26T19:58:45.532Z,89.40
2022-12-26T20:01:18.335Z,89.10
2022-12-26T20:03:45.512Z,89.20
2022-12-26T20:06:14.957Z,89.40
2022-12-26T20:08:42.807Z,88.60
2022-12-26T20:11:13.092Z,88.90
2022-12-26T20:13:42.023Z,88.70
2022-12-26T20:16:37.480Z,88.30
2022-12-26T20:19:02.117Z,87.60
2022-12-26T20:21:28.975Z,87.00
2022-12-26T20:23:58.441Z,86.20
2022-12-26T20:26:26.203Z,85.50
2022-12-26T20:28:57.016Z,83.00
2022-12-26T20:31:24.543Z,81.90
2022-12-26T20:33:52.581Z,79.80
2022-12-26T20:36:28.807Z,79.60
2022-12-26T20:38:58.618Z,78.90
2022-12-26T20:41:27.472Z,78.50
2022-12-26T20:43:54.570Z,78.30
2022-12-26T20:46:33.060Z,75.40
2022-12-26T20:49:04.926Z,74.10
2022-12-26T20:51:37.971Z,73.70
2022-12-26T20:54:06.815Z,71.80
2022-12-26T20:56:34.497Z,70.50
2022-12-26T20:59:04.639Z,71.40
2022-12-26T21:01:31.677Z,69.90
2022-12-26T21:03:59.222Z,69.90
2022-12-26T21:06:29.521Z,70.10
2022-12-26T21:08:58.140Z,70.30
2022-12-26T21:11:28.460Z,69.90
2022-12-26T21:14:00.138Z,70.70
2022-12-26T21:16:30.652Z,71.40
2022-12-26T21:18:58.510Z,72.20
2022-12-26T21:21:30.961Z,70.60
2022-12-26T21:24:00.805Z,69.60
2022-12-26T21:26:30.811Z,69.50
2022-12-26T21:29:03.660Z,68.60
2022-12-26T21:31:31.964Z,68.10
2022-12-26T21:34:01.259Z,69.50
2022-12-26T21:36:29.080Z,69.00
2022-12-26T21:38:56.786Z,69.00
2022-12-26T21:41:24.422Z,69.30
2022-12-26T21:43:51.370Z,69.60
2022-12-26T21:46:19.959Z,69.70
2022-12-26T21:48:50.243Z,69.50
2022-12-26T21:51:20.928Z,70.10
2022-12-26T21:53:48.802Z,70.60
2022-12-26T21:56:17.015Z,70.40
2022-12-26T21:59:04.927Z,70.40
2022-12-26T22:01:32.631Z,70.10
2022-12-26T22:04:17.993Z,70.00
2022-12-26T22:06:44.810Z,70.40
2022-12-26T22:09:12.136Z,70.70
2022-12-26T22:12:00.174Z,70.80
2022-12-26T22:14:28.474Z,70.70
2022-12-26T22:16:56.215Z,70.90
2022-12-26T22:19:24.612Z,70.30
2022-12-26T22:21:56.231Z,70.30
2022-12-26T22:24:23.143Z,70.60
2022-12-26T22:26:50.024Z,71.30
2022-12-26T22:29:21.742Z,72.00
2022-12-26T22:31:48.490Z,72.00
2022-12-26T22:34:16.898Z,72.00
2022-12-26T22:36:46.274Z,71.90
2022-12-26T22:39:16.900Z,71.70
2022-12-26T22:41:45.479Z,72.20
2022-12-26T22:44:16.119Z,72.70
2022-12-26T22:46:43.167Z,72.70
2022-12-26T22:49:10.460Z,73.10
2022-12-26T22:51:41.648Z,73.10
2022-12-26T22:54:11.553Z,73.50
2022-12-26T22:56:38.289Z,73.80
2022-12-26T22:59:05.399Z,74.00
2022-12-26T23:01:32.984Z,74.40
2022-12-26T23:04:01.408Z,74.60
2022-12-26T23:06:29.696Z,75.10
2022-12-26T23:09:02.001Z,75.80
2022-12-26T23:11:34.976Z,75.90
2022-12-26T23:14:07.109Z,75.90
2022-12-26T23:16:51.097Z,76.70
2022-12-26T23:20:06.062Z,77.80
2022-12-26T23:22:33.536Z,78.70
2022-12-26T23:25:00.328Z,79.40
2022-12-26T23:27:46.243Z,80.30
2022-12-26T23:30:20.029Z,80.40
2022-12-26T23:32:52.791Z,81.10
2022-12-26T23:35:21.964Z,82.00
2022-12-26T23:37:49.087Z,82.80
2022-12-26T23:40:20.033Z,83.20
2022-12-26T23:42:50.254Z,83.60
2022-12-26T23:45:17.361Z,83.90
2022-12-26T23:47:45.914Z,84.10
2022-12-26T23:50:14.373Z,84.30
2022-12-26T23:52:42.747Z,84.90
2022-12-26T23:55:10.787Z,85.20
2022-12-26T23:57:39.956Z,85.40
